Time;durP1;ratioP1;P1;durP2;ratioP2;P2;SDS_P1;SDS_P2;PMS_P1;PMS_P2;Temp;Humidity;BMP_temperature;BMP_pressure;BME280_temperature;BME280_humidity;BME280_pressure;Samples;Min_cycle;Max_cycle;Signal;HPM_P1;HPM_P2
2023/04/24 00:02:18;;;;;;;2.78;1.23;;;;;;;;;;5000891;28;20600;-71
2023/04/24 00:04:45;;;;;;;1.48;1.38;;;;;;;;;;4990450;28;20053;-71
2023/04/24 00:07:12;;;;;;;1.88;1.40;;;;;;;;;;4990494;28;20045;-71
2023/04/24 00:09:38;;;;;;;1.35;1.20;;;;;;;;;;4987177;28;20049;-71
2023/04/24 00:12:17;;;;;;;1.55;1.27;;;;;;;;;;4988447;28;20396;-71
2023/04/24 00:14:43;;;;;;;2.50;1.35;;;;;;;;;;4985779;28;20500;-71
2023/04/24 00:17:09;;;;;;;1.40;1.30;;;;;;;;;;5006625;28;20038;-71
2023/04/24 00:19:35;;;;;;;1.55;1.30;;;;;;;;;;4981819;28;20873;-71
2023/04/24 00:22:02;;;;;;;3.58;1.40;;;;;;;;;;4986930;28;20042;-71
2023/04/24 00:24:28;;;;;;;1.65;1.15;;;10.60;99.90;;;;;;4989374;28;20077;-71
2023/04/24 00:26:53;;;;;;;2.65;1.58;;;10.70;99.90;;;;;;4989322;28;20046;-71
2023/04/24 00:29:19;;;;;;;3.33;1.30;;;;;;;;;;5000465;28;20052;-71
2023/04/24 00:31:45;;;;;;;1.65;1.48;;;;;;;;;;5007087;28;20061;-71
2023/04/24 00:34:12;;;;;;;2.05;1.85;;;;;;;;;;4989094;28;20108;-71
2023/04/24 00:36:38;;;;;;;1.85;1.73;;;;;;;;;;4987536;28;20541;-71
2023/04/24 00:39:04;;;;;;;1.63;1.52;;;;;;;;;;5005981;28;20041;-71
2023/04/24 00:41:30;;;;;;;1.55;1.42;;;;;;;;;;4985083;28;20108;-71
2023/04/24 00:43:56;;;;;;;1.95;1.50;;;;;;;;;;4988177;28;20045;-71
2023/04/24 00:46:22;;;;;;;1.75;1.60;;;;;;;;;;4980872;28;20130;-71
2023/04/24 00:48:48;;;;;;;1.55;1.45;;;;;;;;;;4988293;28;20058;-71
2023/04/24 00:51:14;;;;;;;1.80;1.40;;;;;;;;;;4984836;28;20046;-71
2023/04/24 00:53:40;;;;;;;1.70;1.60;;;;;;;;;;4981072;28;20060;-72
2023/04/24 00:56:06;;;;;;;2.78;1.98;;;10.50;99.90;;;;;;4999040;28;20038;-71
2023/04/24 00:58:32;;;;;;;1.90;1.52;;;10.50;99.90;;;;;;5006400;28;20492;-71
2023/04/24 01:00:59;;;;;;;4.30;1.92;;;;;;;;;;5002479;28;20100;-71
2023/04/24 01:03:26;;;;;;;3.55;1.85;;;;;;;;;;4988546;28;20054;-71
2023/04/24 01:05:53;;;;;;;1.85;1.73;;;;;;;;;;5005505;28;20046;-71
2023/04/24 01:08:19;;;;;;;2.20;2.03;;;;;;;;;;5006480;28;20049;-71
2023/04/24 01:10:46;;;;;;;2.08;1.98;;;;;;;;;;4984786;28;20496;-71
2023/04/24 01:13:12;;;;;;;2.42;2.13;;;;;;;;;;5005454;28;20049;-71
2023/04/24 01:15:38;;;;;;;2.72;2.47;;;;;;;;;;4980891;28;20050;-71
2023/04/24 01:18:04;;;;;;;3.72;2.50;;;;;;;;;;4987780;28;20045;-71
2023/04/24 01:20:31;;;;;;;2.67;2.47;;;;;;;;;;5000228;28;20050;-71
2023/04/24 01:22:57;;;;;;;3.28;2.97;;;;;;;;;;4986126;28;20034;-71
2023/04/24 01:25:25;;;;;;;3.70;2.90;;;;;;;;;;5006062;28;20140;-71
2023/04/24 01:27:51;;;;;;;3.60;3.30;;;;;;;;;;5005421;28;20492;-71
2023/04/24 01:30:17;;;;;;;3.83;3.42;;;;;;;;;;5006305;28;20045;-71
2023/04/24 01:32:44;;;;;;;3.50;3.20;;;;;;;;;;4968318;28;20924;-71
2023/04/24 01:35:10;;;;;;;4.10;3.70;;;;;;;;;;4973207;28;20057;-71
2023/04/24 01:37:39;;;;;;;4.15;3.75;;;;;;;;;;5005769;28;20042;-71
2023/04/24 01:40:07;;;;;;;6.30;4.13;;;;;;;;;;5006473;28;20578;-71
2023/04/24 01:42:32;;;;;;;4.68;4.28;;;10.40;99.90;;;;;;4983798;28;20512;-71
2023/04/24 01:44:59;;;;;;;4.75;4.22;;;;;;;;;;4982170;28;20077;-71
2023/04/24 01:47:26;;;;;;;5.18;4.68;;;;;;;;;;4986849;28;20061;-71
2023/04/24 01:49:52;;;;;;;6.05;5.15;;;;;;;;;;4988753;28;20905;-71
2023/04/24 01:52:18;;;;;;;5.28;4.78;;;;;;;;;;4984242;28;20052;-71
2023/04/24 01:54:44;;;;;;;5.60;5.10;;;;;;;;;;4988028;28;20527;-72
2023/04/24 01:57:10;;;;;;;6.20;5.60;;;;;;;;;;4971220;28;20042;-71
2023/04/24 01:59:36;;;;;;;6.60;5.85;;;;;;;;;;4986156;28;20133;-72
2023/04/24 02:02:03;;;;;;;7.20;5.50;;;;;;;;;;4979989;28;20080;-71
2023/04/24 02:04:28;;;;;;;7.20;6.50;;;10.40;99.90;;;;;;4991470;28;20503;-71
2023/04/24 02:06:54;;;;;;;8.35;7.25;;;;;;;;;;4983356;28;20042;-71
2023/04/24 02:09:20;;;;;;;8.60;7.10;;;;;;;;;;4984207;28;20046;-71
2023/04/24 02:11:46;;;;;;;9.55;8.18;;;;;;;;;;4991258;28;20042;-71
2023/04/24 02:14:12;;;;;;;11.32;7.90;;;;;;;;;;4985441;28;20038;-72
2023/04/24 02:16:38;;;;;;;8.57;7.55;;;;;;;;;;4989571;28;20037;-71
2023/04/24 02:19:04;;;;;;;10.13;9.10;;;10.50;99.90;;;;;;5007689;28;20802;-71
2023/04/24 02:21:31;;;;;;;12.82;8.40;;;;;;;;;;4982356;28;20046;-71
2023/04/24 02:23:57;;;;;;;11.20;9.13;;;;;;;;;;4991126;28;20099;-71
2023/04/24 02:26:23;;;;;;;10.55;9.45;;;10.40;99.90;;;;;;4992130;28;20053;-71
2023/04/24 02:28:49;;;;;;;11.88;10.68;;;;;;;;;;5001792;28;20065;-71
2023/04/24 02:31:15;;;;;;;10.60;9.43;;;;;;;;;;4993172;28;20456;-71
2023/04/24 02:33:41;;;;;;;11.68;9.73;;;;;;;;;;4987265;28;20077;-71
2023/04/24 02:36:07;;;;;;;11.02;9.88;;;;;;;;;;4988414;28;20053;-71
2023/04/24 02:38:33;;;;;;;12.90;9.40;;;10.60;99.90;;;;;;4993113;28;20088;-72
2023/04/24 02:41:00;;;;;;;10.88;9.77;;;;;;;;;;4992209;28;20050;-71
2023/04/24 02:43:26;;;;;;;10.02;9.02;;;;;;;;;;4992141;28;20049;-71
2023/04/24 02:45:52;;;;;;;9.23;8.32;;;;;;;;;;4991272;28;20579;-71
2023/04/24 02:48:20;;;;;;;9.30;8.38;;;;;;;;;;4989804;28;20046;-72
2023/04/24 02:50:46;;;;;;;9.23;8.32;;;;;;;;;;4991096;28;20057;-71
2023/04/24 02:53:12;;;;;;;9.15;8.25;;;;;;;;;;5008659;28;20510;-71
2023/04/24 02:55:38;;;;;;;13.27;8.93;;;;;;;;;;4991411;28;20171;-71
2023/04/24 02:58:04;;;;;;;8.82;8.02;;;;;;;;;;4990028;28;20593;-71
2023/04/24 03:00:31;;;;;;;9.13;8.27;;;;;;;;;;4989203;28;20041;-71
2023/04/24 03:02:57;;;;;;;8.55;7.72;;;;;;;;;;4990093;28;20045;-71
2023/04/24 03:05:23;;;;;;;8.85;8.05;;;;;;;;;;4989627;28;20153;-71
2023/04/24 03:07:49;;;;;;;8.85;8.05;;;;;;;;;;4990950;28;20050;-71
2023/04/24 03:10:15;;;;;;;10.65;8.27;;;;;;;;;;4989597;28;20073;-71
2023/04/24 03:12:41;;;;;;;8.73;7.93;;;;;;;;;;5005948;28;20041;-71
2023/04/24 03:15:07;;;;;;;8.18;7.38;;;;;;;;;;4990343;28;20045;-71
2023/04/24 03:17:33;;;;;;;8.73;7.82;;;;;;;;;;5004162;28;20045;-71
2023/04/24 03:19:59;;;;;;;8.18;7.38;;;;;;;;;;5008142;28;20145;-71
2023/04/24 03:22:25;;;;;;;7.72;7.00;;;10.20;99.90;;;;;;4991299;28;20385;-72
2023/04/24 03:24:51;;;;;;;8.43;7.53;;;;;;;;;;4988667;28;20080;-71
2023/04/24 03:27:17;;;;;;;7.90;7.18;;;;;;;;;;5005590;28;20050;-71
2023/04/24 03:29:42;;;;;;;8.10;7.30;;;10.20;99.90;;;;;;4988274;28;20038;-71
2023/04/24 03:32:08;;;;;;;7.88;7.07;;;10.20;99.90;;;;;;4986989;28;20053;-71
2023/04/24 03:34:34;;;;;;;7.57;6.85;;;;;;;;;;4989537;28;20049;-71
2023/04/24 03:37:00;;;;;;;8.52;6.63;;;;;;;;;;4991006;28;20038;-71
2023/04/24 03:39:27;;;;;;;7.95;6.95;;;;;;;;;;4989383;28;20488;-71
2023/04/24 03:41:52;;;;;;;8.93;7.20;;;10.20;99.90;;;;;;4985772;28;20049;-71
2023/04/24 03:44:18;;;;;;;7.22;6.30;;;;;;;;;;4986977;28;20058;-71
2023/04/24 03:46:44;;;;;;;10.05;7.38;;;;;;;;;;4988577;28;20046;-71
2023/04/24 03:49:10;;;;;;;7.35;6.35;;;;;;;;;;5001342;28;20046;-71
2023/04/24 03:51:36;;;;;;;7.90;6.38;;;;;;;;;;5005857;28;20034;-71
2023/04/24 03:54:03;;;;;;;7.60;6.78;;;;;;;;;;5001300;28;20042;-71
2023/04/24 03:56:29;;;;;;;7.72;6.90;;;;;;;;;;5000701;28;20066;-72
2023/04/24 03:58:55;;;;;;;9.30;7.00;;;;;;;;;;5006549;28;20408;-71
2023/04/24 04:01:21;;;;;;;9.55;7.38;;;;;;;;;;4989395;28;20045;-71
2023/04/24 04:03:47;;;;;;;7.68;6.45;;;;;;;;;;4987595;28;20477;-71
2023/04/24 04:06:13;;;;;;;9.77;7.03;;;;;;;;;;5006492;28;20564;-71
2023/04/24 04:08:39;;;;;;;8.68;6.60;;;;;;;;;;4990630;28;20487;-71
2023/04/24 04:11:05;;;;;;;8.98;7.50;;;;;;;;;;4988008;28;20177;-71
2023/04/24 04:13:31;;;;;;;8.60;6.63;;;10.10;99.90;;;;;;4986732;28;20053;-71
2023/04/24 04:15:57;;;;;;;8.48;7.15;;;;;;;;;;5005406;28;20042;-71
2023/04/24 04:18:23;;;;;;;10.48;7.13;;;;;;;;;;4975899;28;20408;-71
2023/04/24 04:20:49;;;;;;;8.52;7.13;;;;;;;;;;4984529;28;20052;-71
2023/04/24 04:23:15;;;;;;;9.27;7.03;;;;;;;;;;4988027;28;20049;-72
2023/04/24 04:25:41;;;;;;;8.13;6.88;;;;;;;;;;4986840;28;20062;-71
2023/04/24 04:28:06;;;;;;;8.05;6.80;;;10.10;99.90;;;;;;4988621;28;20466;-71
2023/04/24 04:30:32;;;;;;;9.93;7.55;;;;;;;;;;4983724;28;20101;-71
2023/04/24 04:32:59;;;;;;;11.45;7.90;;;10.10;99.90;;;;;;4983422;28;20095;-71
2023/04/24 04:35:25;;;;;;;7.20;5.93;;;;;;;;;;4995676;28;20046;-71
2023/04/24 04:37:51;;;;;;;7.68;6.10;;;;;;;;;;4986627;28;20041;-71
2023/04/24 04:40:17;;;;;;;7.85;6.90;;;;;;;;;;4999673;28;20054;-72
2023/04/24 04:42:45;;;;;;;6.60;5.78;;;;;;;;;;4984672;28;20081;-74
2023/04/24 04:45:12;;;;;;;7.00;5.63;;;;;;;;;;4986786;28;20057;-74
2023/04/24 04:47:39;;;;;;;8.27;6.13;;;;;;;;;;4987888;28;20046;-74
2023/04/24 04:50:05;;;;;;;4.50;3.75;;;;;;;;;;5002116;28;20815;-75
2023/04/24 04:52:31;;;;;;;3.60;2.95;;;;;;;;;;4984875;28;20046;-74
2023/04/24 04:54:57;;;;;;;3.00;2.65;;;;;;;;;;4982928;28;20142;-74
2023/04/24 04:57:23;;;;;;;3.17;2.60;;;;;;;;;;4993575;28;20046;-73
2023/04/24 04:59:49;;;;;;;2.28;1.90;;;;;;;;;;4987258;28;20049;-70
2023/04/24 05:02:15;;;;;;;2.53;2.30;;;;;;;;;;4984637;28;20423;-70
2023/04/24 05:04:41;;;;;;;3.35;2.30;;;;;;;;;;4981633;28;20180;-71
2023/04/24 05:07:07;;;;;;;3.30;3.00;;;10.50;99.90;;;;;;5006061;28;20077;-71
2023/04/24 05:09:33;;;;;;;3.25;2.55;;;;;;;;;;5003123;28;20817;-71
2023/04/24 05:11:59;;;;;;;4.63;2.47;;;;;;;;;;5004145;28;20038;-71
2023/04/24 05:14:25;;;;;;;4.68;3.22;;;;;;;;;;4982039;28;20049;-73
2023/04/24 05:16:51;;;;;;;5.85;3.40;;;;;;;;;;4985110;28;20053;-73
2023/04/24 05:19:17;;;;;;;4.13;3.72;;;;;;;;;;4985148;28;20078;-73
2023/04/24 05:21:43;;;;;;;5.35;4.72;;;;;;;;;;4985619;28;20052;-72
2023/04/24 05:24:09;;;;;;;6.38;4.20;;;;;;;;;;4985986;28;20864;-72
2023/04/24 05:26:35;;;;;;;7.72;4.70;;;;;;;;;;4982288;28;20046;-73
2023/04/24 05:29:02;;;;;;;6.78;5.07;;;;;;;;;;4983526;28;20046;-73
2023/04/24 05:31:28;;;;;;;7.05;4.95;;;;;;;;;;4987989;28;20045;-71
2023/04/24 05:33:54;;;;;;;8.63;5.47;;;;;;;;;;4987329;28;20041;-71
2023/04/24 05:36:20;;;;;;;8.73;6.22;;;;;;;;;;4984066;28;20137;-72
2023/04/24 05:38:46;;;;;;;8.57;5.80;;;;;;;;;;4988307;28;20294;-71
2023/04/24 05:41:12;;;;;;;9.77;5.57;;;;;;;;;;4999817;28;20137;-73
2023/04/24 05:43:38;;;;;;;7.82;5.70;;;;;;;;;;4983296;28;20471;-73
2023/04/24 05:46:05;;;;;;;7.25;5.38;;;;;;;;;;4980357;28;20415;-71
2023/04/24 05:48:31;;;;;;;7.43;5.50;;;;;;;;;;5005032;28;20044;-71
2023/04/24 05:50:57;;;;;;;6.70;4.88;;;;;;;;;;4981011;28;20042;-71
2023/04/24 05:53:23;;;;;;;6.85;4.78;;;;;;;;;;4980487;28;20050;-71
2023/04/24 05:55:49;;;;;;;7.43;4.78;;;;;;;;;;4996378;28;20053;-71
2023/04/24 05:58:15;;;;;;;8.20;4.53;;;;;;;;;;5000595;28;20073;-71
2023/04/24 06:00:42;;;;;;;6.13;3.85;;;;;;;;;;4976522;28;20485;-71
2023/04/24 06:03:27;;;;;;;5.47;4.60;;;;;;;;;;4982735;28;20116;-71
2023/04/24 06:05:53;;;;;;;6.60;4.33;;;;;;;;;;4992843;28;20121;-71
2023/04/24 06:08:18;;;;;;;8.18;4.35;;;10.40;99.90;;;;;;5001856;28;20285;-71
2023/04/24 06:10:45;;;;;;;8.00;4.97;;;;;;;;;;5004314;28;20123;-71
2023/04/24 06:13:11;;;;;;;7.63;5.75;;;;;;;;;;5000246;28;20047;-71
2023/04/24 06:15:37;;;;;;;7.60;5.40;;;;;;;;;;4986042;28;20049;-71
2023/04/24 06:18:03;;;;;;;8.05;5.10;;;;;;;;;;4985581;28;20066;-71
2023/04/24 06:20:29;;;;;;;8.55;5.07;;;10.40;99.90;;;;;;4986049;28;20136;-72
2023/04/24 06:22:55;;;;;;;6.13;4.28;;;;;;;;;;5003057;28;20248;-72
2023/04/24 06:25:21;;;;;;;8.15;4.20;;;;;;;;;;4978586;28;20515;-71
2023/04/24 06:27:47;;;;;;;5.85;3.85;;;10.40;99.90;;;;;;4982607;28;20520;-71
2023/04/24 06:30:13;;;;;;;7.95;3.88;;;;;;;;;;5002847;28;20212;-71
2023/04/24 06:32:39;;;;;;;5.20;4.03;;;10.40;99.90;;;;;;4985033;28;20060;-71
2023/04/24 06:35:07;;;;;;;6.32;4.20;;;;;;;;;;5002797;28;20527;-71
2023/04/24 06:37:33;;;;;;;12.02;5.40;;;;;;;;;;4981501;28;20393;-71
2023/04/24 06:39:59;;;;;;;7.55;3.38;;;10.40;99.90;;;;;;5000256;28;20061;-71
2023/04/24 06:42:25;;;;;;;6.20;3.85;;;;;;;;;;5002270;28;20050;-72
2023/04/24 06:44:51;;;;;;;5.88;3.50;;;;;;;;;;4981390;28;20567;-72
2023/04/24 06:47:18;;;;;;;8.13;3.55;;;10.50;99.90;;;;;;4984619;28;20136;-72
2023/04/24 06:49:44;;;;;;;8.07;3.53;;;;;;;;;;5002100;28;20046;-71
2023/04/24 06:52:10;;;;;;;4.70;3.03;;;;;;;;;;4982287;28;20518;-72
2023/04/24 06:54:36;;;;;;;4.63;3.22;;;;;;;;;;4972401;28;20049;-72
2023/04/24 06:57:02;;;;;;;6.45;3.50;;;;;;;;;;4986629;28;20478;-71
2023/04/24 06:59:28;;;;;;;4.05;2.72;;;10.50;99.90;;;;;;4981882;28;20046;-71
2023/04/24 07:01:55;;;;;;;6.68;2.53;;;;;;;;;;4983980;28;20038;-71
2023/04/24 07:04:21;;;;;;;4.63;2.47;;;;;;;;;;4983456;28;20496;-71
2023/04/24 07:06:47;;;;;;;6.00;2.40;;;;;;;;;;4995114;28;20053;-72
2023/04/24 07:09:13;;;;;;;9.00;3.47;;;;;;;;;;5004278;28;20091;-71
2023/04/24 07:11:40;;;;;;;5.32;2.67;;;;;;;;;;4981338;28;20054;-71
2023/04/24 07:14:06;;;;;;;4.78;3.53;;;;;;;;;;4985920;28;20046;-71
2023/04/24 07:16:33;;;;;;;8.18;3.15;;;;;;;;;;4990195;28;20132;-71
2023/04/24 07:18:58;;;;;;;7.20;2.80;;;;;;;;;;4971157;28;20046;-71
2023/04/24 07:21:25;;;;;;;5.95;3.28;;;;;;;;;;4987871;28;20053;-71
2023/04/24 07:23:51;;;;;;;5.95;2.88;;;;;;;;;;5003207;28;20042;-71
2023/04/24 07:26:17;;;;;;;5.13;3.13;;;;;;;;;;5005891;28;20698;-71
2023/04/24 07:28:45;;;;;;;6.82;2.30;;;10.30;99.90;;;;;;4981548;28;20077;-71
2023/04/24 07:31:11;;;;;;;5.95;2.83;;;;;;;;;;5003437;28;20037;-71
2023/04/24 07:33:37;;;;;;;3.35;2.55;;;;;;;;;;4987475;28;20057;-70
2023/04/24 07:36:03;;;;;;;6.20;2.50;;;;;;;;;;4985265;28;20045;-71
2023/04/24 07:38:30;;;;;;;6.30;3.15;;;;;;;;;;4986051;28;20052;-71
2023/04/24 07:40:56;;;;;;;5.18;3.20;;;;;;;;;;4983141;28;20113;-71
2023/04/24 07:43:23;;;;;;;8.60;4.75;;;;;;;;;;4982444;28;20791;-71
2023/04/24 07:45:49;;;;;;;9.75;4.85;;;;;;;;;;4985529;28;20073;-71
2023/04/24 07:48:16;;;;;;;10.82;5.95;;;;;;;;;;4981649;28;20125;-71
2023/04/24 07:50:42;;;;;;;14.70;6.38;;;;;;;;;;4984652;28;20193;-71
2023/04/24 07:53:08;;;;;;;8.68;6.45;;;;;;;;;;4978365;28;20671;-71
2023/04/24 07:55:34;;;;;;;15.30;8.77;;;;;;;;;;4979756;28;20038;-71
2023/04/24 07:58:00;;;;;;;20.08;9.82;;;;;;;;;;4982438;28;20046;-71
2023/04/24 08:00:26;;;;;;;21.48;10.35;;;;;;;;;;4982841;28;20090;-71
2023/04/24 08:02:52;;;;;;;19.60;10.85;;;;;;;;;;4982984;28;20050;-71
2023/04/24 08:05:18;;;;;;;15.63;8.50;;;;;;;;;;4983607;28;20058;-74
2023/04/24 08:07:45;;;;;;;13.32;8.50;;;;;;;;;;4984149;28;20043;-69
2023/04/24 08:12:47;;;;;;;20.55;9.32;;;;;;;;;;5898933;23;20065;-71
2023/04/24 08:15:13;;;;;;;15.75;9.23;;;;;;;;;;4989253;28;20041;-71
2023/04/24 08:17:39;;;;;;;17.50;11.10;;;10.10;99.90;;;;;;4988250;28;20783;-70
2023/04/24 08:20:09;;;;;;;20.30;11.45;;;;;;;;;;4981156;28;20042;-75
2023/04/24 08:22:35;;;;;;;21.63;10.60;;;;;;;;;;4970262;28;20050;-69
2023/04/24 08:25:01;;;;;;;23.75;11.63;;;;;;;;;;4987707;28;20045;-73
2023/04/24 08:27:28;;;;;;;18.80;11.68;;;;;;;;;;4953341;28;20124;-73
2023/04/24 08:29:54;;;;;;;24.90;12.60;;;;;;;;;;4969744;28;20409;-72
2023/04/24 08:32:20;;;;;;;22.05;12.55;;;;;;;;;;4975627;28;20049;-72
2023/04/24 08:34:46;;;;;;;26.45;14.15;;;;;;;;;;4970370;28;20042;-72
2023/04/24 08:37:12;;;;;;;18.75;12.10;;;;;;;;;;4973132;28;20050;-73
2023/04/24 08:39:38;;;;;;;25.45;13.95;;;;;;;;;;4975291;28;20411;-73
2023/04/24 08:42:07;;;;;;;23.00;12.35;;;;;;;;;;4969013;28;20047;-73
2023/04/24 08:44:35;;;;;;;22.13;11.75;;;;;;;;;;4993133;28;20046;-73
2023/04/24 08:47:02;;;;;;;21.67;11.05;;;;;;;;;;4970488;28;20057;-73
2023/04/24 08:49:29;;;;;;;17.13;10.57;;;;;;;;;;4988277;28;20041;-73
2023/04/24 08:51:55;;;;;;;15.35;9.10;;;;;;;;;;4955638;28;20053;-73
2023/04/24 08:54:21;;;;;;;13.32;8.93;;;;;;;;;;4991331;28;20084;-77
2023/04/24 08:56:49;;;;;;;15.40;9.23;;;;;;;;;;4974547;28;20075;-73
2023/04/24 08:59:15;;;;;;;14.38;8.73;;;;;;;;;;4969699;28;20042;-72
2023/04/24 09:01:42;;;;;;;17.00;8.95;;;;;;;;;;4955705;28;20042;-70
2023/04/24 09:04:10;;;;;;;10.48;7.50;;;;;;;;;;4974246;28;20048;-71
2023/04/24 09:06:36;;;;;;;13.75;7.50;;;;;;;;;;4970332;28;20062;-70
2023/04/24 09:09:03;;;;;;;13.20;7.40;;;;;;;;;;4971553;28;20412;-71
2023/04/24 09:11:31;;;;;;;13.20;7.07;;;;;;;;;;4967075;28;20741;-71
2023/04/24 09:13:57;;;;;;;15.50;7.40;;;;;;;;;;4967623;28;20058;-70
2023/04/24 09:16:25;;;;;;;12.63;7.00;;;;;;;;;;4986839;28;20046;-70
2023/04/24 09:18:51;;;;;;;13.77;7.15;;;;;;;;;;4981731;28;20123;-71
2023/04/24 09:21:17;;;;;;;13.70;6.70;;;;;;;;;;4975739;28;20571;-70
2023/04/24 09:23:43;;;;;;;13.90;6.13;;;;;;;;;;4969855;28;20731;-70
2023/04/24 09:26:10;;;;;;;9.25;6.10;;;;;;;;;;4990876;28;20038;-71
2023/04/24 09:28:38;;;;;;;14.27;6.63;;;;;;;;;;4969264;28;20140;-70
2023/04/24 09:31:04;;;;;;;11.35;6.43;;;;;;;;;;4964475;28;20050;-70
2023/04/24 09:33:30;;;;;;;12.18;6.70;;;;;;;;;;4970566;28;20054;-70
2023/04/24 09:35:56;;;;;;;10.20;5.60;;;;;;;;;;4970124;28;20050;-70
2023/04/24 09:38:33;;;;;;;13.48;6.38;;;10.20;99.90;;;;;;4989071;28;20046;-70
2023/04/24 09:41:01;;;;;;;12.10;5.63;;;10.10;99.90;;;;;;4972909;28;20053;-73
2023/04/24 09:43:27;;;;;;;10.98;5.18;;;;;;;;;;4986380;28;20069;-71
2023/04/24 09:45:56;;;;;;;9.32;5.28;;;10.20;99.90;;;;;;4969009;28;20077;-74
2023/04/24 09:48:32;;;;;;;12.63;5.88;;;;;;;;;;4985183;28;20050;-74
2023/04/24 09:50:58;;;;;;;6.43;3.85;;;;;;;;;;4968068;28;20042;-72
2023/04/24 09:53:26;;;;;;;9.25;3.47;;;;;;;;;;4970954;28;20137;-72
2023/04/24 09:55:52;;;;;;;7.72;4.25;;;;;;;;;;4968853;28;20500;-71
2023/04/24 09:58:19;;;;;;;10.52;4.10;;;;;;;;;;4966493;28;20042;-74
2023/04/24 10:00:46;;;;;;;12.15;4.13;;;;;;;;;;4968221;28;20046;-72
2023/04/24 10:03:12;;;;;;;6.55;3.85;;;;;;;;;;4969331;28;20042;-72
2023/04/24 10:05:38;;;;;;;12.85;4.47;;;;;;;;;;4966396;28;20049;-77
2023/04/24 10:08:11;;;;;;;10.90;3.90;;;;;;;;;;4967450;28;20046;-72
2023/04/24 10:10:44;;;;;;;11.30;3.95;;;;;;;;;;4968317;28;20073;-72
2023/04/24 10:13:11;;;;;;;12.00;3.67;;;;;;;;;;4968044;28;20161;-72
2023/04/24 10:15:38;;;;;;;8.82;3.63;;;;;;;;;;4968713;28;20054;-73
2023/04/24 10:18:08;;;;;;;12.88;4.00;;;;;;;;;;4971820;28;20132;-71
2023/04/24 10:20:35;;;;;;;8.38;3.65;;;;;;;;;;4985493;28;20043;-71
2023/04/24 10:23:01;;;;;;;11.30;3.35;;;;;;;;;;4989198;28;20053;-71
2023/04/24 10:25:28;;;;;;;9.75;2.95;;;;;;;;;;4955384;28;20054;-72
2023/04/24 10:27:59;;;;;;;11.80;3.38;;;;;;;;;;4971120;28;20054;-71
2023/04/24 10:30:25;;;;;;;15.25;3.28;;;;;;;;;;4972618;28;20806;-72
2023/04/24 10:32:51;;;;;;;10.57;3.17;;;;;;;;;;4975911;28;20699;-72
2023/04/24 10:35:18;;;;;;;12.30;2.85;;;;;;;;;;4973567;28;20148;-71
2023/04/24 10:37:50;;;;;;;10.75;2.72;;;10.20;99.90;;;;;;4992423;28;20103;-67
2023/04/24 10:40:18;;;;;;;12.75;2.58;;;10.30;99.90;;;;;;4989803;28;20046;-67
2023/04/24 10:42:47;;;;;;;15.55;3.60;;;;;;;;;;4988297;28;20068;-69
2023/04/24 10:45:18;;;;;;;7.20;3.05;;;;;;;;;;4976129;28;20046;-69
2023/04/24 10:47:51;;;;;;;12.40;4.65;;;;;;;;;;4985043;28;20050;-69
2023/04/24 10:50:17;;;;;;;9.88;2.75;;;;;;;;;;4975523;28;20054;-72
2023/04/24 10:52:51;;;;;;;8.25;2.22;;;;;;;;;;4978524;28;20366;-70
2023/04/24 10:55:37;;;;;;;15.18;3.17;;;;;;;;;;4972969;28;20053;-70
2023/04/24 10:58:03;;;;;;;11.90;2.97;;;;;;;;;;4981379;28;20120;-69
2023/04/24 11:00:29;;;;;;;7.35;2.53;;;;;;;;;;4978757;28;20137;-70
2023/04/24 11:02:56;;;;;;;9.18;2.60;;;;;;;;;;4996189;28;20133;-68
2023/04/24 11:05:23;;;;;;;10.90;3.20;;;;;;;;;;4970618;28;20058;-71
2023/04/24 11:08:08;;;;;;;7.93;2.65;;;;;;;;;;4971104;28;20048;-71
2023/04/24 11:11:02;;;;;;;12.27;2.95;;;;;;;;;;4968481;28;20050;-71
2023/04/24 11:13:48;;;;;;;7.95;2.53;;;;;;;;;;4970656;28;20054;-70
2023/04/24 11:16:40;;;;;;;8.63;2.10;;;;;;;;;;4970897;28;20126;-69
2023/04/24 11:19:08;;;;;;;4.30;2.20;;;;;;;;;;4953231;28;20069;-68
2023/04/24 11:21:41;;;;;;;5.22;2.22;;;;;;;;;;4981952;28;20518;-71
2023/04/24 11:24:22;;;;;;;6.00;2.08;;;;;;;;;;4974063;28;20073;-71
2023/04/24 11:26:48;;;;;;;4.72;2.00;;;;;;;;;;4975244;28;20814;-69
2023/04/24 11:29:15;;;;;;;11.38;2.13;;;;;;;;;;4974668;28;20093;-71
2023/04/24 11:31:49;;;;;;;4.25;2.13;;;;;;;;;;4976929;28;20046;-71
2023/04/24 11:34:16;;;;;;;6.68;2.38;;;;;;;;;;4972768;28;20525;-71
2023/04/24 11:36:48;;;;;;;7.57;2.40;;;;;;;;;;4970557;28;20142;-70
2023/04/24 11:39:15;;;;;;;7.38;1.92;;;;;;;;;;4962121;28;20061;-71
2023/04/24 11:41:41;;;;;;;9.80;2.35;;;;;;;;;;4994522;28;20038;-70
2023/04/24 11:44:09;;;;;;;9.02;2.40;;;;;;;;;;4987913;28;20050;-70
2023/04/24 11:46:34;;;;;;;7.35;2.22;;;10.30;99.90;;;;;;4970120;28;20061;-69
2023/04/24 11:49:00;;;;;;;9.80;1.92;;;10.50;99.90;;;;;;4970045;28;20033;-69
2023/04/24 11:51:27;;;;;;;6.45;2.00;;;;;;;;;;4987568;28;20078;-69
2023/04/24 11:53:56;;;;;;;3.75;1.75;;;;;;;;;;4969782;28;20596;-69
2023/04/24 11:56:23;;;;;;;3.67;1.63;;;10.40;99.90;;;;;;4963730;28;20093;-71
2023/04/24 11:58:56;;;;;;;2.67;1.58;;;;;;;;;;4970289;28;20062;-71
2023/04/24 12:01:23;;;;;;;3.70;1.77;;;;;;;;;;4968619;28;20039;-71
2023/04/24 12:03:50;;;;;;;2.97;1.38;;;;;;;;;;4987423;28;20068;-71
2023/04/24 12:06:16;;;;;;;3.58;1.50;;;;;;;;;;4969624;28;20061;-68
2023/04/24 12:08:46;;;;;;;4.57;1.40;;;;;;;;;;4988539;28;20404;-70
2023/04/24 12:11:15;;;;;;;4.90;1.15;;;;;;;;;;4977430;28;20046;-69
2023/04/24 12:13:41;;;;;;;2.67;1.40;;;;;;;;;;4965853;28;20055;-71
2023/04/24 12:16:07;;;;;;;2.17;1.02;;;;;;;;;;4974565;28;20061;-71
2023/04/24 12:18:33;;;;;;;5.50;2.03;;;;;;;;;;4970943;28;20127;-71
2023/04/24 12:21:18;;;;;;;4.40;1.55;;;;;;;;;;4967200;28;20035;-69
2023/04/24 12:23:45;;;;;;;3.67;1.13;;;;;;;;;;4967084;28;20043;-70
2023/04/24 12:26:12;;;;;;;2.60;1.27;;;11.30;99.90;;;;;;4969141;28;20051;-69
2023/04/24 12:28:38;;;;;;;4.10;1.15;;;;;;;;;;4966575;28;20046;-70
2023/04/24 12:31:05;;;;;;;5.32;1.20;;;;;;;;;;4965837;28;20046;-72
2023/04/24 12:33:35;;;;;;;8.15;1.50;;;;;;;;;;4966860;28;20481;-71
2023/04/24 12:36:01;;;;;;;4.88;1.27;;;;;;;;;;4968149;28;20046;-70
2023/04/24 12:38:29;;;;;;;7.85;1.52;;;;;;;;;;4966778;28;20130;-69
2023/04/24 12:41:03;;;;;;;3.22;1.08;;;;;;;;;;4967009;28;20042;-71
2023/04/24 12:43:30;;;;;;;3.77;1.37;;;;;;;;;;4961146;28;20046;-70
2023/04/24 12:45:56;;;;;;;6.60;1.48;;;;;;;;;;4964199;28;20305;-72
2023/04/24 12:48:22;;;;;;;6.63;1.52;;;;;;;;;;4964574;28;20483;-71
2023/04/24 12:50:48;;;;;;;3.80;0.93;;;;;;;;;;4970038;28;20042;-71
2023/04/24 12:53:15;;;;;;;6.65;1.85;;;;;;;;;;4965583;28;20116;-70
2023/04/24 12:55:41;;;;;;;2.80;1.20;;;;;;;;;;4967449;28;20461;-69
2023/04/24 12:58:07;;;;;;;4.10;1.52;;;;;;;;;;4966845;28;20038;-70
2023/04/24 13:00:33;;;;;;;2.92;1.13;;;;;;;;;;4965177;28;20093;-72
2023/04/24 13:02:59;;;;;;;3.65;1.30;;;;;;;;;;4967133;28;20066;-74
2023/04/24 13:05:25;;;;;;;3.15;1.05;;;;;;;;;;4966156;28;20074;-70
2023/04/24 13:07:51;;;;;;;2.33;1.20;;;;;;;;;;4967024;28;20077;-70
2023/04/24 13:10:18;;;;;;;5.57;1.35;;;;;;;;;;4965964;28;20054;-70
2023/04/24 13:12:45;;;;;;;4.13;1.25;;;;;;;;;;4972571;28;20507;-71
2023/04/24 13:18:40;;;;;;;5.32;1.30;;;;;;;;;;4971765;28;20045;-70
2023/04/24 13:21:06;;;;;;;7.75;1.23;;;;;;;;;;4967967;28;20381;-72
2023/04/24 13:23:32;;;;;;;6.15;1.88;;;10.40;99.90;;;;;;4964577;28;20042;-69
2023/04/24 13:25:58;;;;;;;4.88;1.58;;;;;;;;;;4964648;28;20105;-70
2023/04/24 13:28:27;;;;;;;4.93;1.30;;;10.20;99.90;;;;;;4965105;28;20047;-72
2023/04/24 13:30:53;;;;;;;4.85;1.80;;;;;;;;;;4964357;28;20838;-70
2023/04/24 13:33:19;;;;;;;3.33;1.42;;;;;;;;;;4967088;28;20052;-71
2023/04/24 13:35:45;;;;;;;3.72;1.42;;;;;;;;;;4969254;28;20038;-69
2023/04/24 13:38:11;;;;;;;7.70;1.08;;;;;;;;;;4969566;28;20077;-71
2023/04/24 13:40:37;;;;;;;6.90;2.75;;;;;;;;;;4969633;28;20113;-72
2023/04/24 13:43:03;;;;;;;2.90;1.55;;;;;;;;;;4967298;28;20154;-71
2023/04/24 13:45:29;;;;;;;7.30;1.65;;;;;;;;;;4966132;28;20777;-69
2023/04/24 13:47:56;;;;;;;9.70;2.28;;;;;;;;;;4966592;28;20046;-70
2023/04/24 13:50:22;;;;;;;6.72;1.95;;;;;;;;;;4968015;28;21811;-73
2023/04/24 13:52:49;;;;;;;8.75;1.92;;;;;;;;;;4969037;28;20587;-70
2023/04/24 13:55:15;;;;;;;6.90;2.35;;;;;;;;;;4965221;28;20429;-72
2023/04/24 13:57:41;;;;;;;4.82;1.83;;;;;;;;;;4972770;28;20089;-70
2023/04/24 14:00:10;;;;;;;8.27;2.40;;;;;;;;;;4970812;28;20493;-73
2023/04/24 14:02:36;;;;;;;10.27;2.22;;;;;;;;;;4976684;28;20097;-72
2023/04/24 14:05:03;;;;;;;9.13;2.30;;;;;;;;;;4974303;28;20101;-70
2023/04/24 14:07:31;;;;;;;7.75;1.95;;;;;;;;;;4973636;28;20113;-70
2023/04/24 14:09:57;;;;;;;9.70;1.88;;;;;;;;;;4979308;28;20046;-71
2023/04/24 14:12:23;;;;;;;8.90;2.40;;;;;;;;;;4974745;28;20048;-74
2023/04/24 14:14:49;;;;;;;12.23;2.40;;;;;;;;;;4974538;28;20065;-72
2023/04/24 14:17:15;;;;;;;11.32;2.38;;;;;;;;;;4977729;28;20412;-74
2023/04/24 14:19:41;;;;;;;9.57;2.55;;;;;;;;;;4980831;28;20090;-73
2023/04/24 14:22:07;;;;;;;10.95;2.67;;;;;;;;;;4976530;28;20057;-75
2023/04/24 14:24:33;;;;;;;10.52;2.22;;;;;;;;;;4984186;28;20050;-70
2023/04/24 14:27:00;;;;;;;8.00;2.00;;;;;;;;;;4980057;28;20129;-71
2023/04/24 14:29:26;;;;;;;14.70;2.53;;;;;;;;;;4976050;28;20054;-71
2023/04/24 14:31:52;;;;;;;8.50;2.13;;;;;;;;;;4976925;28;20083;-71